< < Back
Terminal Aerodrome Forecast


Current Version              Previous Versions:   1  2  3  4  5  6  7  8  9  

Terminal Aerodrome Forecast

605
FTUS42 KCHS 312206 AAB
TAFSAV
TAF AMD
KSAV 312206Z 3122/0118 23012G18KT P6SM SCT060
     FM010000 23007KT P6SM SCT050 BKN080
     FM011200 30006KT P6SM BKN035
     FM011600 03008KT P6SM SCT040 BKN080=

Latest METAR

933
SAUS80 KWBC 010900 RRI
MTRSAV
METAR KSAV 010853Z AUTO 24008KT 10SM SCT050 BKN070 15/13 A2997 RMK AO2
SLP149 T01500133 53004 TSNO


USA.gov is the U.S. government's official web portal to all federal, state and local government web resources and services.